Latest Weather Observations for Rottnest Island

IDW60801

Issued at 7:32 pm WST Tuesday 9 February 2016 (issued every 30 minutes, with the page automatically refreshed every 10 minutes)

About weather observations | Map of weather stations | Latest weather observations for WA | Other Formats
Station Details ID: 009193 Name: ROTTNEST ISLAND Lat: -32.01 Lon: 115.50 Height: 43.1 m
Data from the previous 72 hours. | See also: Recent months at Rottnest Island
Date/Time
WST
Temp
°C
App
Temp
°C
Dew
Point
Rel
Hum
%
Delta-T
°C
Wind Press
QNH
hPa
Press
MSL
hPa
Rain
since 9 am
mm
Dir
 
Spd
km/h
Gust
km/h
Spd
kts
Gust
kts
09/07:30pm 23.8 23.0 19.3 76 2.9 SSW 22 26 12 14 1012.9 1012.7 0.0
09/07:00pm 24.6 24.2 19.4 73 3.3 S 20 24 11 13 1012.9 1012.7 0.0
09/06:30pm 25.2 23.9 19.1 69 3.9 S 24 28 13 15 1012.7 1012.5 0.0
09/06:00pm 25.3 24.2 19.4 70 3.8 S 24 28 13 15 1012.6 1012.4 0.0
09/05:30pm 25.7 25.0 20.3 72 3.5 S 24 30 13 16 1012.7 1012.5 0.0
09/05:00pm 25.8 24.8 19.7 69 4.0 SSW 24 32 13 17 1012.7 1012.5 0.0
09/04:30pm 26.3 25.6 20.2 69 4.0 S 24 28 13 15 1012.6 1012.4 0.0
09/04:00pm 27.6 26.3 19.1 59 5.5 SSW 24 32 13 17 1012.7 1012.5 0.0
09/03:30pm 29.7 27.7 16.5 45 8.3 SW 22 28 12 15 1012.7 1012.5 0.0
09/03:00pm 32.9 30.4 14.0 32 11.5 SW 20 26 11 14 1012.9 1012.7 0.0
09/02:53pm 32.1 30.0 15.1 35 10.5 SW 20 26 11 14 1013.0 1012.8 0.0
09/02:30pm 37.1 31.8 3.0 12 17.9 W 20 28 11 15 1013.0 1012.8 0.0
09/02:00pm 36.9 31.2 2.8 12 17.8 W 22 28 12 15 1013.3 1013.1 0.0
09/01:30pm 36.0 30.2 2.1 12 17.4 WNW 22 30 12 16 1013.5 1013.3 0.0
09/01:00pm 37.3 31.6 3.1 12 18.0 NW 22 28 12 15 1013.6 1013.4 0.0
09/12:30pm 35.9 30.1 2.1 12 17.4 NW 22 26 12 14 1013.9 1013.7 0.0
09/12:00pm 36.0 30.4 3.3 13 17.1 NW 22 28 12 15 1014.1 1013.9 0.0
09/11:30am 34.7 29.3 4.3 15 16.1 NW 22 26 12 14 1014.6 1014.4 0.0
09/11:00am 33.6 28.7 4.3 16 15.4 NNW 19 24 10 13 1014.9 1014.7 0.0
09/10:30am 33.7 28.7 3.5 15 15.7 N 19 24 10 13 1015.0 1014.8 0.0
09/10:00am 32.9 27.8 2.9 15 15.3 N 19 24 10 13 1015.1 1014.9 0.0
09/09:30am 33.8 29.7 4.5 16 15.5 NNE 15 17 8 9 1015.0 1014.8 0.0
09/09:00am 32.3 27.8 4.2 17 14.6 NE 17 22 9 12 1014.7 1014.5 0.0
09/08:30am 31.7 27.1 3.7 17 14.4 NE 17 22 9 12 1014.7 1014.5 0.0
09/08:00am 31.0 26.6 4.7 19 13.7 NE 17 20 9 11 1014.7 1014.5 0.0
09/07:30am 29.8 26.1 6.5 23 12.4 NE 15 19 8 10 1014.7 1014.5 0.0
09/07:00am 29.2 25.4 6.0 23 12.2 ENE 15 17 8 9 1014.4 1014.2 0.0
09/06:30am 28.4 24.6 5.9 24 11.8 ENE 15 17 8 9 1014.1 1013.9 0.0
09/06:00am 28.0 25.1 6.7 26 11.3 NE 11 15 6 8 1014.0 1013.8 0.0
09/05:30am 28.9 24.9 5.1 22 12.3 NE 15 17 8 9 1013.5 1013.3 0.0
09/05:00am 28.0 24.0 6.7 26 11.3 ENE 17 20 9 11 1013.1 1012.9 0.0
09/04:30am 27.7 23.4 7.0 27 11.0 ENE 19 22 10 12 1012.8 1012.6 0.0
09/04:00am 28.3 24.4 7.0 26 11.4 ENE 17 20 9 11 1012.8 1012.6 0.0
09/03:30am 27.9 23.6 7.2 27 11.1 E 19 22 10 12 1012.5 1012.3 0.0
09/03:00am 28.3 24.5 7.5 27 11.2 E 17 19 9 10 1012.4 1012.2 0.0
09/02:30am 28.6 25.0 8.3 28 11.1 ESE 17 19 9 10 1012.4 1012.2 0.0
09/02:00am 29.5 25.8 8.0 26 11.8 ESE 17 20 9 11 1012.7 1012.5 0.0
09/01:30am 28.9 25.4 8.6 28 11.2 SE 17 20 9 11 1012.9 1012.7 0.0
09/01:00am 28.7 24.7 10.4 32 10.4 SE 22 26 12 14 1013.1 1012.9 0.0
09/12:30am 28.4 25.1 11.0 34 9.9 SE 19 22 10 12 1013.6 1013.4 0.0
09/12:00am 30.6 26.3 7.1 23 12.7 ESE 19 24 10 13 1013.8 1013.6 0.0
 
Date/Time
WST
Temp
°C
App
Temp
°C
Dew
Point
Rel
Hum
%
Delta-T
°C
Wind Press
QNH
hPa
Press
MSL
hPa
Rain
since 9 am
mm
Dir
 
Spd
km/h
Gust
km/h
Spd
kts
Gust
kts
08/11:30pm 30.2 26.0 9.7 28 11.6 SE 22 26 12 14 1013.9 1013.7 0.0
08/11:00pm 30.2 26.1 10.2 29 11.4 SE 22 26 12 14 1014.2 1014.0 0.0
08/10:30pm 29.6 25.8 11.2 32 10.6 SE 22 26 12 14 1014.2 1014.0 0.0
08/10:00pm 28.3 25.2 15.6 46 7.8 SE 26 33 14 18 1014.2 1014.0 0.0
08/09:30pm 28.0 25.7 15.6 46 7.6 SE 22 28 12 15 1014.2 1014.0 0.0
08/09:00pm 26.2 25.0 17.6 59 5.4 SSE 20 26 11 14 1014.0 1013.8 0.0
08/08:30pm 26.0 25.1 18.2 62 4.9 SSE 20 24 11 13 1013.7 1013.5 0.0
08/08:00pm 26.5 25.3 18.4 61 5.2 SSW 22 30 12 16 1013.2 1013.0 0.0
08/07:30pm 27.4 25.6 17.8 55 6.1 SSW 24 30 13 16 1013.0 1012.8 0.0
08/07:00pm 28.0 26.2 17.8 54 6.5 SW 24 32 13 17 1012.7 1012.5 0.0
08/06:30pm 29.9 27.4 17.0 45 8.1 SSW 26 33 14 18 1012.5 1012.3 0.0
08/06:00pm 32.9 29.3 13.0 30 12.0 SSW 24 30 13 16 1012.2 1012.0 0.0
08/05:30pm 33.8 29.7 11.6 26 13.1 SSW 24 30 13 16 1012.2 1012.0 0.0
08/05:00pm 34.6 30.8 12.3 26 13.4 SSW 24 30 13 16 1012.3 1012.1 0.0
08/04:30pm 35.0 31.3 11.4 24 14.0 SSW 22 26 12 14 1012.4 1012.2 0.0
08/04:00pm 35.5 32.8 11.8 24 14.1 S 17 19 9 10 1012.6 1012.4 0.0
08/03:30pm 36.6 33.4 10.0 20 15.5 S 17 20 9 11 1012.7 1012.5 0.0
08/03:00pm 37.6 35.0 9.2 18 16.4 S 13 19 7 10 1013.1 1012.9 0.0
08/02:30pm 39.1 34.9 5.7 13 18.5 S 17 19 9 10 1013.3 1013.1 0.0
08/02:00pm 37.8 33.8 6.7 15 17.3 SSE 17 20 9 11 1013.6 1013.4 0.0
08/01:30pm 36.7 33.9 8.5 18 16.1 SSE 13 17 7 9 1013.9 1013.7 0.0
08/01:00pm 38.7 37.2 8.4 16 17.4 N 6 13 3 7 1014.4 1014.2 0.0
08/12:30pm 39.4 35.1 3.5 11 19.2 NE 15 20 8 11 1014.6 1014.4 0.0
08/12:00pm 38.1 33.3 4.9 13 18.0 ENE 19 26 10 14 1014.8 1014.6 0.0
08/11:30am 38.4 33.7 5.1 13 18.2 ENE 19 28 10 15 1015.1 1014.9 0.0
08/11:00am 37.2 32.9 5.3 14 17.4 NE 17 26 9 14 1015.3 1015.1 0.0
08/10:30am 35.2 29.6 5.6 16 16.0 NE 24 32 13 17 1015.5 1015.3 0.0
08/10:00am 33.6 27.2 5.2 17 15.1 NE 28 37 15 20 1015.5 1015.3 0.0
08/09:30am 32.4 26.8 7.3 21 13.8 NE 26 35 14 19 1015.5 1015.3 0.0
08/09:00am 31.0 25.2 8.1 24 12.6 NE 28 37 15 20 1015.6 1015.4 0.0
08/08:30am 30.1 24.7 7.9 25 12.1 NE 26 35 14 19 1015.6 1015.4 0.0
08/08:00am 29.4 24.4 7.9 26 11.7 NE 24 33 13 18 1015.5 1015.3 0.0
08/07:30am 28.1 23.1 7.9 28 10.9 ENE 24 33 13 18 1015.5 1015.3 0.0
08/07:00am 26.8 22.9 9.6 34 9.5 ENE 20 28 11 15 1015.4 1015.2 0.0
08/06:30am 25.8 21.9 9.6 36 8.9 ENE 20 28 11 15 1015.1 1014.9 0.0
08/06:00am 25.6 21.8 9.8 37 8.7 ENE 20 26 11 14 1014.9 1014.7 0.0
08/05:30am 25.6 22.1 11.0 40 8.2 ENE 20 28 11 15 1014.7 1014.5 0.0
08/05:00am 25.4 22.0 11.2 41 8.0 E 20 26 11 14 1014.4 1014.2 0.0
08/04:30am 25.8 21.9 10.8 39 8.4 E 22 28 12 15 1014.2 1014.0 0.0
08/04:00am 25.9 21.9 10.5 38 8.6 E 22 28 12 15 1014.0 1013.8 0.0
08/03:30am 25.9 22.2 10.1 37 8.8 E 20 24 11 13 1013.9 1013.7 0.0
08/03:00am 26.2 22.6 10.4 37 8.8 E 20 26 11 14 1013.8 1013.6 0.0
08/02:30am 26.1 22.6 12.2 42 8.0 ESE 22 30 12 16 1013.9 1013.7 0.0
08/02:00am 24.8 21.6 13.0 47 6.8 SE 22 24 12 13 1014.1 1013.9 0.0
08/01:30am 25.6 22.8 13.1 46 7.3 SE 20 24 11 13 1014.1 1013.9 0.0
08/01:00am 25.0 22.8 14.8 53 6.1 SE 20 24 11 13 1014.3 1014.1 0.0
08/12:30am 25.3 22.8 14.1 50 6.6 SE 20 22 11 12 1014.6 1014.4 0.0
08/12:00am 25.3 22.9 14.4 50 6.5 SE 20 24 11 13 1015.0 1014.8 0.0
 
Date/Time
WST
Temp
°C
App
Temp
°C
Dew
Point
Rel
Hum
%
Delta-T
°C
Wind Press
QNH
hPa
Press
MSL
hPa
Rain
since 9 am
mm
Dir
 
Spd
km/h
Gust
km/h
Spd
kts
Gust
kts
07/11:30pm 25.3 23.5 15.9 56 5.7 SSE 20 24 11 13 1015.2 1015.0 0.0
07/11:00pm 24.8 23.5 17.3 63 4.7 SSE 20 28 11 15 1015.4 1015.2 0.0
07/10:30pm 24.8 23.3 17.8 65 4.4 SSE 22 30 12 16 1015.4 1015.2 0.0
07/10:00pm 24.7 22.9 17.9 66 4.3 SSE 24 30 13 16 1015.6 1015.4 0.0
07/09:30pm 24.4 22.3 18.1 68 4.0 SSE 26 32 14 17 1015.5 1015.3 0.0
07/09:00pm 24.2 21.8 18.2 69 3.8 SSE 28 35 15 19 1015.3 1015.1 0.0
07/08:30pm 24.0 21.0 18.6 72 3.4 SSE 32 37 17 20 1015.0 1014.8 0.0
07/08:00pm 23.7 21.2 18.8 74 3.1 S 30 39 16 21 1014.7 1014.5 0.0
07/07:30pm 23.5 20.6 18.8 75 3.0 S 32 39 17 21 1014.5 1014.3 0.0
07/07:00pm 23.5 21.8 19.0 76 2.9 S 26 33 14 18 1014.4 1014.2 0.0
07/06:30pm 24.0 22.0 19.1 74 3.1 S 28 33 15 18 1014.0 1013.8 0.0
07/06:00pm 24.5 22.5 19.1 72 3.5 S 28 33 15 18 1013.8 1013.6 0.0
07/05:30pm 25.0 22.9 18.9 69 3.9 S 28 35 15 19 1013.7 1013.5 0.0
07/05:00pm 25.2 22.6 18.6 67 4.2 SSW 30 37 16 20 1013.5 1013.3 0.0
07/04:30pm 25.7 23.4 18.4 64 4.6 SSW 28 37 15 20 1013.6 1013.4 0.0
07/04:00pm 25.6 24.1 18.5 65 4.5 SSW 24 32 13 17 1013.9 1013.7 0.0
07/03:30pm 25.7 23.1 18.6 65 4.5 SSW 30 35 16 19 1014.0 1013.8 0.0
07/03:00pm 25.1 22.7 19.0 69 3.9 S 30 35 16 19 1014.0 1013.8 0.0
07/02:30pm 24.9 22.4 18.8 69 3.9 S 30 35 16 19 1014.4 1014.2 0.0
07/02:00pm 25.1 23.0 19.0 69 3.9 S 28 33 15 18 1014.5 1014.3 0.0
07/01:30pm 25.9 24.3 19.3 67 4.3 SSW 26 32 14 17 1014.8 1014.6 0.0
07/01:00pm 25.6 23.8 17.8 62 4.9 SSW 24 28 13 15 1015.0 1014.8 0.0
07/12:30pm 26.3 25.4 18.2 61 5.1 S 20 26 11 14 1015.2 1015.0 0.0
07/12:00pm 27.1 26.4 15.5 49 7.1 SSE 13 17 7 9 1015.4 1015.2 0.0
07/11:30am 26.8 26.0 16.1 52 6.6 SSE 15 17 8 9 1015.6 1015.4 0.0
07/11:00am 27.6 27.1 16.9 52 6.7 SSE 15 19 8 10 1015.7 1015.5 0.0
07/10:30am 29.2 27.8 14.6 41 8.9 E 15 22 8 12 1015.9 1015.7 0.0
07/10:00am 27.6 25.4 13.2 41 8.5 ENE 17 24 9 13 1016.2 1016.0 0.0
07/09:30am 26.8 24.5 14.2 46 7.5 E 19 26 10 14 1016.1 1015.9 0.0
07/09:00am 26.1 24.4 14.6 49 6.9 E 17 26 9 14 1016.1 1015.9 0.0
07/08:30am 24.6 21.5 14.4 53 6.1 ENE 24 33 13 18 1015.9 1015.7 0.0
07/08:00am 23.4 21.2 14.4 57 5.3 E 19 26 10 14 1015.8 1015.6 0.0
07/07:30am 23.1 22.2 14.9 60 4.9 ESE 13 17 7 9 1015.8 1015.6 0.0
07/07:00am 22.3 22.2 14.9 63 4.4 ESE 9 15 5 8 1015.7 1015.5 0.0
07/06:30am 21.2 19.8 14.6 66 3.9 ESE 15 20 8 11 1015.3 1015.1 0.0
07/06:00am 20.9 19.5 14.5 67 3.7 ESE 15 24 8 13 1015.2 1015.0 0.0
07/05:30am 21.0 19.6 14.4 66 3.9 ESE 15 20 8 11 1014.9 1014.7 0.0
07/05:00am 21.2 19.5 14.6 66 3.9 ESE 17 20 9 11 1014.6 1014.4 0.0
07/04:30am 21.5 20.3 15.1 67 3.8 ESE 15 26 8 14 1014.4 1014.2 0.0
07/04:00am 21.5 20.4 15.3 68 3.7 ESE 15 20 8 11 1014.4 1014.2 0.0
07/03:30am 22.0 20.6 15.6 67 3.8 ESE 17 22 9 12 1014.1 1013.9 0.0
07/03:00am 22.5 20.6 15.8 66 4.0 ESE 20 28 11 15 1014.1 1013.9 0.0
07/02:30am 22.9 20.9 16.4 67 4.0 E 22 32 12 17 1014.1 1013.9 0.0
07/02:00am 23.0 21.8 17.0 69 3.7 ESE 19 24 10 13 1014.2 1014.0 0.0
07/01:30am 23.2 22.1 17.2 69 3.7 ESE 19 24 10 13 1014.2 1014.0 0.0
07/01:00am 22.3 22.2 19.5 84 1.8 SE 19 24 10 13 1014.3 1014.1 0.0
07/12:30am 22.3 22.2 20.0 87 1.5 SSE 20 26 11 14 1014.4 1014.2 0.0
07/12:00am 22.0 21.1 19.9 88 1.3 SSE 24 30 13 16 1014.4 1014.2 0.0
 
Date/Time
WST
Temp
°C
App
Temp
°C
Dew
Point
Rel
Hum
%
Delta-T
°C
Wind Press
QNH
hPa
Press
MSL
hPa
Rain
since 9 am
mm
Dir
 
Spd
km/h
Gust
km/h
Spd
kts
Gust
kts
06/11:30pm 21.7 18.9 19.1 85 1.6 S 32 35 17 19 1014.4 1014.2 0.0
06/11:00pm 21.7 18.3 18.9 84 1.8 S 35 44 19 24 1014.7 1014.5 0.0
06/10:30pm 21.7 19.5 18.7 83 1.9 S 28 37 15 20 1015.1 1014.9 0.0
06/10:00pm 21.8 19.6 18.6 82 2.0 S 28 37 15 20 1015.0 1014.8 0.0
06/09:30pm 21.9 18.8 18.5 81 2.1 S 32 39 17 21 1015.1 1014.9 0.0
06/09:00pm 22.0 18.9 18.4 80 2.3 S 32 41 17 22 1014.9 1014.7 0.0
06/08:30pm 22.0 18.7 18.4 80 2.3 S 33 43 18 23 1014.7 1014.5 0.0
06/08:00pm 22.0 18.8 18.6 81 2.1 SSW 33 43 18 23 1014.5 1014.3 0.0

Other Formats:

Comma delimited format used in spreadsheet applications
http://www.bom.gov.au/fwo/IDW60801/IDW60801.94602.axf

JavaScript Object Notation format (JSON) in row-major order
http://www.bom.gov.au/fwo/IDW60801/IDW60801.94602.json